sensor_id;sensor_type;location;lat;lon;timestamp;P1;durP1;ratioP1;P2;durP2;ratioP2
55037;SDS011;40937;53.594;10.034;2023-04-30T00:02:17;20.67;;;5.60;;
55037;SDS011;40937;53.594;10.034;2023-04-30T00:04:45;15.10;;;5.10;;
55037;SDS011;40937;53.594;10.034;2023-04-30T00:07:12;14.45;;;5.45;;
55037;SDS011;40937;53.594;10.034;2023-04-30T00:09:40;10.00;;;5.03;;
55037;SDS011;40937;53.594;10.034;2023-04-30T00:12:06;15.75;;;5.03;;
55037;SDS011;40937;53.594;10.034;2023-04-30T00:14:33;19.80;;;5.65;;
55037;SDS011;40937;53.594;10.034;2023-04-30T00:17:01;12.98;;;4.45;;
55037;SDS011;40937;53.594;10.034;2023-04-30T00:19:27;17.00;;;5.13;;
55037;SDS011;40937;53.594;10.034;2023-04-30T00:21:56;13.27;;;6.00;;
55037;SDS011;40937;53.594;10.034;2023-04-30T00:24:23;16.05;;;5.55;;
55037;SDS011;40937;53.594;10.034;2023-04-30T00:26:49;14.88;;;5.38;;
55037;SDS011;40937;53.594;10.034;2023-04-30T00:29:16;14.13;;;5.03;;
55037;SDS011;40937;53.594;10.034;2023-04-30T00:31:43;10.18;;;4.15;;
55037;SDS011;40937;53.594;10.034;2023-04-30T00:34:12;14.05;;;5.00;;
55037;SDS011;40937;53.594;10.034;2023-04-30T00:36:39;14.68;;;5.03;;
55037;SDS011;40937;53.594;10.034;2023-04-30T00:39:07;12.63;;;5.32;;
55037;SDS011;40937;53.594;10.034;2023-04-30T00:41:35;22.17;;;5.47;;
55037;SDS011;40937;53.594;10.034;2023-04-30T00:44:02;15.68;;;5.03;;
55037;SDS011;40937;53.594;10.034;2023-04-30T00:46:29;16.23;;;5.05;;
55037;SDS011;40937;53.594;10.034;2023-04-30T00:48:56;17.45;;;4.85;;
55037;SDS011;40937;53.594;10.034;2023-04-30T00:51:25;20.30;;;5.40;;
55037;SDS011;40937;53.594;10.034;2023-04-30T00:53:52;20.35;;;5.50;;
55037;SDS011;40937;53.594;10.034;2023-04-30T00:56:21;17.08;;;4.93;;
55037;SDS011;40937;53.594;10.034;2023-04-30T00:58:48;15.48;;;5.18;;
55037;SDS011;40937;53.594;10.034;2023-04-30T01:01:16;15.85;;;4.75;;
55037;SDS011;40937;53.594;10.034;2023-04-30T01:03:43;17.38;;;5.18;;
55037;SDS011;40937;53.594;10.034;2023-04-30T01:06:10;10.05;;;4.32;;
55037;SDS011;40937;53.594;10.034;2023-04-30T01:08:39;15.75;;;5.13;;
55037;SDS011;40937;53.594;10.034;2023-04-30T01:11:11;12.32;;;5.13;;
55037;SDS011;40937;53.594;10.034;2023-04-30T01:13:49;12.23;;;4.72;;
55037;SDS011;40937;53.594;10.034;2023-04-30T01:16:21;12.38;;;5.07;;
55037;SDS011;40937;53.594;10.034;2023-04-30T01:18:50;14.07;;;4.35;;
55037;SDS011;40937;53.594;10.034;2023-04-30T01:21:18;13.05;;;4.95;;
55037;SDS011;40937;53.594;10.034;2023-04-30T01:24:01;11.73;;;4.85;;
55037;SDS011;40937;53.594;10.034;2023-04-30T01:26:36;10.77;;;4.85;;
55037;SDS011;40937;53.594;10.034;2023-04-30T01:29:10;11.60;;;5.43;;
55037;SDS011;40937;53.594;10.034;2023-04-30T01:31:37;12.80;;;5.60;;
55037;SDS011;40937;53.594;10.034;2023-04-30T01:34:04;14.93;;;5.68;;
55037;SDS011;40937;53.594;10.034;2023-04-30T01:36:38;12.35;;;4.60;;
55037;SDS011;40937;53.594;10.034;2023-04-30T01:39:21;13.00;;;4.38;;
55037;SDS011;40937;53.594;10.034;2023-04-30T01:41:53;13.38;;;5.38;;
55037;SDS011;40937;53.594;10.034;2023-04-30T01:44:28;12.50;;;4.97;;
55037;SDS011;40937;53.594;10.034;2023-04-30T01:46:57;14.55;;;5.28;;
55037;SDS011;40937;53.594;10.034;2023-04-30T01:49:26;15.85;;;4.63;;
55037;SDS011;40937;53.594;10.034;2023-04-30T01:51:57;14.90;;;5.47;;
55037;SDS011;40937;53.594;10.034;2023-04-30T01:54:29;18.20;;;5.65;;
55037;SDS011;40937;53.594;10.034;2023-04-30T01:56:58;10.18;;;4.65;;
55037;SDS011;40937;53.594;10.034;2023-04-30T01:59:30;12.80;;;4.88;;
55037;SDS011;40937;53.594;10.034;2023-04-30T02:01:57;18.75;;;5.60;;
55037;SDS011;40937;53.594;10.034;2023-04-30T02:04:24;12.80;;;5.00;;
55037;SDS011;40937;53.594;10.034;2023-04-30T02:06:51;10.52;;;5.57;;
55037;SDS011;40937;53.594;10.034;2023-04-30T02:09:18;13.00;;;4.90;;
55037;SDS011;40937;53.594;10.034;2023-04-30T02:11:45;12.80;;;4.75;;
55037;SDS011;40937;53.594;10.034;2023-04-30T02:14:13;11.70;;;5.43;;
55037;SDS011;40937;53.594;10.034;2023-04-30T02:16:42;15.63;;;5.15;;
55037;SDS011;40937;53.594;10.034;2023-04-30T02:19:09;16.30;;;4.97;;
55037;SDS011;40937;53.594;10.034;2023-04-30T02:21:36;22.48;;;6.32;;
55037;SDS011;40937;53.594;10.034;2023-04-30T02:24:04;18.08;;;6.57;;
55037;SDS011;40937;53.594;10.034;2023-04-30T02:26:31;12.38;;;5.10;;
55037;SDS011;40937;53.594;10.034;2023-04-30T02:29:00;11.27;;;5.50;;
55037;SDS011;40937;53.594;10.034;2023-04-30T02:31:27;12.32;;;5.82;;
55037;SDS011;40937;53.594;10.034;2023-04-30T02:33:55;13.93;;;6.22;;
55037;SDS011;40937;53.594;10.034;2023-04-30T02:36:22;13.88;;;5.35;;
55037;SDS011;40937;53.594;10.034;2023-04-30T02:38:49;15.25;;;6.20;;
55037;SDS011;40937;53.594;10.034;2023-04-30T02:41:16;12.35;;;5.95;;
55037;SDS011;40937;53.594;10.034;2023-04-30T02:43:46;17.33;;;5.78;;
55037;SDS011;40937;53.594;10.034;2023-04-30T02:46:13;14.60;;;6.03;;
55037;SDS011;40937;53.594;10.034;2023-04-30T02:48:39;10.05;;;5.22;;
55037;SDS011;40937;53.594;10.034;2023-04-30T02:51:08;9.73;;;4.68;;
55037;SDS011;40937;53.594;10.034;2023-04-30T02:53:35;19.02;;;5.88;;
55037;SDS011;40937;53.594;10.034;2023-04-30T02:56:02;14.75;;;5.80;;
55037;SDS011;40937;53.594;10.034;2023-04-30T02:58:29;18.20;;;5.70;;
55037;SDS011;40937;53.594;10.034;2023-04-30T03:00:56;14.10;;;5.25;;
55037;SDS011;40937;53.594;10.034;2023-04-30T03:03:23;11.98;;;5.18;;
55037;SDS011;40937;53.594;10.034;2023-04-30T03:05:49;10.10;;;5.15;;
55037;SDS011;40937;53.594;10.034;2023-04-30T03:08:18;15.80;;;4.97;;
55037;SDS011;40937;53.594;10.034;2023-04-30T03:10:45;21.27;;;6.22;;
55037;SDS011;40937;53.594;10.034;2023-04-30T03:13:11;14.20;;;5.88;;
55037;SDS011;40937;53.594;10.034;2023-04-30T03:15:38;11.13;;;6.13;;
55037;SDS011;40937;53.594;10.034;2023-04-30T03:18:05;11.40;;;5.53;;
55037;SDS011;40937;53.594;10.034;2023-04-30T03:20:32;9.40;;;4.50;;
55037;SDS011;40937;53.594;10.034;2023-04-30T03:22:59;13.27;;;4.90;;
55037;SDS011;40937;53.594;10.034;2023-04-30T03:25:27;12.88;;;5.72;;
55037;SDS011;40937;53.594;10.034;2023-04-30T03:27:55;10.52;;;5.28;;
55037;SDS011;40937;53.594;10.034;2023-04-30T03:30:22;13.52;;;5.43;;
55037;SDS011;40937;53.594;10.034;2023-04-30T03:32:49;13.85;;;5.50;;
55037;SDS011;40937;53.594;10.034;2023-04-30T03:35:16;12.90;;;5.63;;
55037;SDS011;40937;53.594;10.034;2023-04-30T03:37:43;16.80;;;5.38;;
55037;SDS011;40937;53.594;10.034;2023-04-30T03:40:10;18.23;;;6.10;;
55037;SDS011;40937;53.594;10.034;2023-04-30T03:42:39;13.45;;;5.95;;
55037;SDS011;40937;53.594;10.034;2023-04-30T03:45:06;13.40;;;5.03;;
55037;SDS011;40937;53.594;10.034;2023-04-30T03:47:34;13.68;;;5.22;;
55037;SDS011;40937;53.594;10.034;2023-04-30T03:50:01;10.95;;;5.53;;
55037;SDS011;40937;53.594;10.034;2023-04-30T03:52:28;12.73;;;5.85;;
55037;SDS011;40937;53.594;10.034;2023-04-30T03:54:56;12.10;;;5.47;;
55037;SDS011;40937;53.594;10.034;2023-04-30T03:57:23;12.45;;;5.20;;
55037;SDS011;40937;53.594;10.034;2023-04-30T03:59:51;14.90;;;5.47;;
55037;SDS011;40937;53.594;10.034;2023-04-30T04:02:18;9.77;;;4.97;;
55037;SDS011;40937;53.594;10.034;2023-04-30T04:04:46;14.90;;;5.82;;
55037;SDS011;40937;53.594;10.034;2023-04-30T04:07:12;10.52;;;5.63;;
55037;SDS011;40937;53.594;10.034;2023-04-30T04:09:39;13.25;;;5.43;;
55037;SDS011;40937;53.594;10.034;2023-04-30T04:12:06;14.38;;;5.75;;
55037;SDS011;40937;53.594;10.034;2023-04-30T04:14:34;12.95;;;5.68;;
55037;SDS011;40937;53.594;10.034;2023-04-30T04:17:03;14.00;;;5.30;;
55037;SDS011;40937;53.594;10.034;2023-04-30T04:19:31;14.02;;;5.55;;
55037;SDS011;40937;53.594;10.034;2023-04-30T04:21:58;8.98;;;5.57;;
55037;SDS011;40937;53.594;10.034;2023-04-30T04:24:25;15.70;;;6.13;;
55037;SDS011;40937;53.594;10.034;2023-04-30T04:26:52;11.20;;;5.18;;
55037;SDS011;40937;53.594;10.034;2023-04-30T04:29:20;8.77;;;5.07;;
55037;SDS011;40937;53.594;10.034;2023-04-30T04:31:47;11.90;;;5.78;;
55037;SDS011;40937;53.594;10.034;2023-04-30T04:34:17;16.50;;;5.82;;
55037;SDS011;40937;53.594;10.034;2023-04-30T04:36:45;18.52;;;5.70;;
55037;SDS011;40937;53.594;10.034;2023-04-30T04:39:12;10.55;;;4.95;;
55037;SDS011;40937;53.594;10.034;2023-04-30T04:41:39;15.02;;;5.10;;
55037;SDS011;40937;53.594;10.034;2023-04-30T04:44:07;13.02;;;5.43;;
55037;SDS011;40937;53.594;10.034;2023-04-30T04:46:34;11.20;;;5.45;;
55037;SDS011;40937;53.594;10.034;2023-04-30T04:49:03;13.45;;;5.65;;
55037;SDS011;40937;53.594;10.034;2023-04-30T04:51:34;13.98;;;5.80;;
55037;SDS011;40937;53.594;10.034;2023-04-30T04:54:01;9.57;;;5.25;;
55037;SDS011;40937;53.594;10.034;2023-04-30T04:56:28;9.63;;;5.20;;
55037;SDS011;40937;53.594;10.034;2023-04-30T04:58:55;12.38;;;5.40;;
55037;SDS011;40937;53.594;10.034;2023-04-30T05:01:22;11.93;;;5.03;;
55037;SDS011;40937;53.594;10.034;2023-04-30T05:03:49;12.50;;;5.80;;
55037;SDS011;40937;53.594;10.034;2023-04-30T05:06:18;17.45;;;5.28;;
55037;SDS011;40937;53.594;10.034;2023-04-30T05:08:47;8.00;;;4.95;;
55037;SDS011;40937;53.594;10.034;2023-04-30T05:11:14;11.50;;;4.88;;
55037;SDS011;40937;53.594;10.034;2023-04-30T05:13:46;11.40;;;5.50;;
55037;SDS011;40937;53.594;10.034;2023-04-30T05:16:16;15.80;;;5.40;;
55037;SDS011;40937;53.594;10.034;2023-04-30T05:18:46;25.88;;;5.68;;
55037;SDS011;40937;53.594;10.034;2023-04-30T05:21:13;11.52;;;5.15;;
55037;SDS011;40937;53.594;10.034;2023-04-30T05:23:42;12.18;;;6.13;;
55037;SDS011;40937;53.594;10.034;2023-04-30T05:26:10;12.93;;;5.82;;
55037;SDS011;40937;53.594;10.034;2023-04-30T05:28:37;13.93;;;6.45;;
55037;SDS011;40937;53.594;10.034;2023-04-30T05:31:04;9.05;;;5.55;;
55037;SDS011;40937;53.594;10.034;2023-04-30T05:33:31;13.48;;;6.22;;
55037;SDS011;40937;53.594;10.034;2023-04-30T05:35:58;16.75;;;5.38;;
55037;SDS011;40937;53.594;10.034;2023-04-30T05:38:25;12.52;;;4.85;;
55037;SDS011;40937;53.594;10.034;2023-04-30T05:40:52;11.57;;;5.47;;
55037;SDS011;40937;53.594;10.034;2023-04-30T05:43:20;12.32;;;5.25;;
55037;SDS011;40937;53.594;10.034;2023-04-30T05:45:47;11.75;;;5.22;;
55037;SDS011;40937;53.594;10.034;2023-04-30T05:48:14;8.07;;;4.97;;
55037;SDS011;40937;53.594;10.034;2023-04-30T05:50:41;12.80;;;5.85;;
55037;SDS011;40937;53.594;10.034;2023-04-30T05:53:08;10.60;;;4.85;;
55037;SDS011;40937;53.594;10.034;2023-04-30T05:55:35;12.68;;;4.75;;
55037;SDS011;40937;53.594;10.034;2023-04-30T05:58:01;9.48;;;4.45;;
55037;SDS011;40937;53.594;10.034;2023-04-30T06:00:30;8.20;;;4.43;;
55037;SDS011;40937;53.594;10.034;2023-04-30T06:02:57;13.00;;;4.85;;
55037;SDS011;40937;53.594;10.034;2023-04-30T06:05:24;10.65;;;4.90;;
55037;SDS011;40937;53.594;10.034;2023-04-30T06:07:50;12.45;;;4.88;;
55037;SDS011;40937;53.594;10.034;2023-04-30T06:10:17;10.38;;;4.43;;
55037;SDS011;40937;53.594;10.034;2023-04-30T06:12:44;10.07;;;4.25;;
55037;SDS011;40937;53.594;10.034;2023-04-30T06:15:11;8.98;;;3.65;;
55037;SDS011;40937;53.594;10.034;2023-04-30T06:17:39;13.10;;;3.92;;
55037;SDS011;40937;53.594;10.034;2023-04-30T06:20:07;12.38;;;4.53;;
55037;SDS011;40937;53.594;10.034;2023-04-30T06:22:34;11.15;;;4.10;;
55037;SDS011;40937;53.594;10.034;2023-04-30T06:25:01;11.38;;;4.32;;
55037;SDS011;40937;53.594;10.034;2023-04-30T06:27:28;17.10;;;3.97;;
55037;SDS011;40937;53.594;10.034;2023-04-30T06:29:56;6.57;;;3.20;;
55037;SDS011;40937;53.594;10.034;2023-04-30T06:32:25;15.18;;;4.10;;
55037;SDS011;40937;53.594;10.034;2023-04-30T06:34:53;10.45;;;3.50;;
55037;SDS011;40937;53.594;10.034;2023-04-30T06:37:20;15.05;;;3.65;;
55037;SDS011;40937;53.594;10.034;2023-04-30T06:39:47;9.45;;;3.85;;
55037;SDS011;40937;53.594;10.034;2023-04-30T06:42:14;10.13;;;3.97;;
55037;SDS011;40937;53.594;10.034;2023-04-30T06:44:41;14.32;;;3.45;;
55037;SDS011;40937;53.594;10.034;2023-04-30T06:47:10;9.45;;;3.63;;
55037;SDS011;40937;53.594;10.034;2023-04-30T06:49:37;6.35;;;3.58;;
55037;SDS011;40937;53.594;10.034;2023-04-30T06:52:05;8.32;;;3.80;;
55037;SDS011;40937;53.594;10.034;2023-04-30T06:54:33;10.48;;;3.72;;
55037;SDS011;40937;53.594;10.034;2023-04-30T06:57:00;16.83;;;3.28;;
55037;SDS011;40937;53.594;10.034;2023-04-30T06:59:28;9.45;;;2.95;;
55037;SDS011;40937;53.594;10.034;2023-04-30T07:02:02;11.55;;;3.30;;
55037;SDS011;40937;53.594;10.034;2023-04-30T07:04:29;9.45;;;3.25;;
55037;SDS011;40937;53.594;10.034;2023-04-30T07:06:56;11.88;;;3.67;;
55037;SDS011;40937;53.594;10.034;2023-04-30T07:09:26;7.85;;;3.35;;
55037;SDS011;40937;53.594;10.034;2023-04-30T07:11:53;12.23;;;3.30;;
55037;SDS011;40937;53.594;10.034;2023-04-30T07:14:20;9.57;;;3.17;;
55037;SDS011;40937;53.594;10.034;2023-04-30T07:16:48;12.93;;;3.15;;
55037;SDS011;40937;53.594;10.034;2023-04-30T07:19:15;6.97;;;3.00;;
55037;SDS011;40937;53.594;10.034;2023-04-30T07:21:42;9.52;;;3.33;;
55037;SDS011;40937;53.594;10.034;2023-04-30T07:24:12;10.82;;;3.45;;
55037;SDS011;40937;53.594;10.034;2023-04-30T07:26:40;8.77;;;2.67;;
55037;SDS011;40937;53.594;10.034;2023-04-30T07:29:07;14.57;;;3.90;;
55037;SDS011;40937;53.594;10.034;2023-04-30T07:31:43;11.52;;;3.50;;
55037;SDS011;40937;53.594;10.034;2023-04-30T07:34:10;10.45;;;3.08;;
55037;SDS011;40937;53.594;10.034;2023-04-30T07:36:37;8.15;;;3.35;;
55037;SDS011;40937;53.594;10.034;2023-04-30T07:39:10;9.88;;;3.15;;
55037;SDS011;40937;53.594;10.034;2023-04-30T07:41:37;10.32;;;3.35;;
55037;SDS011;40937;53.594;10.034;2023-04-30T07:44:05;7.68;;;3.40;;
55037;SDS011;40937;53.594;10.034;2023-04-30T07:46:32;10.15;;;3.08;;
55037;SDS011;40937;53.594;10.034;2023-04-30T07:48:59;8.43;;;2.92;;
55037;SDS011;40937;53.594;10.034;2023-04-30T07:51:26;12.40;;;3.38;;
55037;SDS011;40937;53.594;10.034;2023-04-30T07:53:59;11.15;;;3.13;;
55037;SDS011;40937;53.594;10.034;2023-04-30T07:56:29;10.70;;;3.95;;
55037;SDS011;40937;53.594;10.034;2023-04-30T07:58:56;8.82;;;3.50;;
55037;SDS011;40937;53.594;10.034;2023-04-30T08:01:29;8.18;;;3.10;;
55037;SDS011;40937;53.594;10.034;2023-04-30T08:03:56;7.80;;;2.90;;
55037;SDS011;40937;53.594;10.034;2023-04-30T08:06:23;7.55;;;3.38;;
55037;SDS011;40937;53.594;10.034;2023-04-30T08:08:52;9.73;;;3.10;;
55037;SDS011;40937;53.594;10.034;2023-04-30T08:11:19;13.70;;;3.47;;
55037;SDS011;40937;53.594;10.034;2023-04-30T08:13:46;5.82;;;2.75;;
55037;SDS011;40937;53.594;10.034;2023-04-30T08:16:13;8.80;;;3.05;;
55037;SDS011;40937;53.594;10.034;2023-04-30T08:18:41;6.50;;;2.92;;
55037;SDS011;40937;53.594;10.034;2023-04-30T08:21:13;9.90;;;3.20;;
55037;SDS011;40937;53.594;10.034;2023-04-30T08:23:40;8.93;;;3.15;;
55037;SDS011;40937;53.594;10.034;2023-04-30T08:26:07;5.57;;;3.20;;
55037;SDS011;40937;53.594;10.034;2023-04-30T08:28:34;8.40;;;3.35;;
55037;SDS011;40937;53.594;10.034;2023-04-30T08:31:02;7.88;;;3.55;;
55037;SDS011;40937;53.594;10.034;2023-04-30T08:33:28;11.88;;;3.55;;
55037;SDS011;40937;53.594;10.034;2023-04-30T08:35:57;12.10;;;2.83;;
55037;SDS011;40937;53.594;10.034;2023-04-30T08:38:24;13.52;;;4.05;;
55037;SDS011;40937;53.594;10.034;2023-04-30T08:41:02;11.68;;;4.15;;
55037;SDS011;40937;53.594;10.034;2023-04-30T08:43:32;7.90;;;3.83;;
55037;SDS011;40937;53.594;10.034;2023-04-30T08:46:00;11.20;;;3.47;;
55037;SDS011;40937;53.594;10.034;2023-04-30T08:48:29;11.40;;;3.67;;
55037;SDS011;40937;53.594;10.034;2023-04-30T08:51:01;11.63;;;2.97;;
55037;SDS011;40937;53.594;10.034;2023-04-30T08:53:28;8.35;;;3.40;;
55037;SDS011;40937;53.594;10.034;2023-04-30T08:55:55;9.07;;;2.85;;
55037;SDS011;40937;53.594;10.034;2023-04-30T08:58:22;10.40;;;3.10;;
55037;SDS011;40937;53.594;10.034;2023-04-30T09:00:49;9.93;;;2.58;;
55037;SDS011;40937;53.594;10.034;2023-04-30T09:03:23;8.43;;;2.90;;
55037;SDS011;40937;53.594;10.034;2023-04-30T09:05:51;9.80;;;3.10;;
55037;SDS011;40937;53.594;10.034;2023-04-30T09:08:19;8.88;;;3.03;;
55037;SDS011;40937;53.594;10.034;2023-04-30T09:11:17;21.90;;;11.55;;
55037;SDS011;40937;53.594;10.034;2023-04-30T09:13:46;13.20;;;3.80;;
55037;SDS011;40937;53.594;10.034;2023-04-30T09:16:13;6.80;;;4.28;;
55037;SDS011;40937;53.594;10.034;2023-04-30T09:18:40;6.50;;;3.30;;
55037;SDS011;40937;53.594;10.034;2023-04-30T09:21:07;7.78;;;2.90;;
55037;SDS011;40937;53.594;10.034;2023-04-30T09:23:35;10.93;;;3.35;;
55037;SDS011;40937;53.594;10.034;2023-04-30T09:26:02;8.88;;;3.17;;
55037;SDS011;40937;53.594;10.034;2023-04-30T09:28:29;6.50;;;2.72;;
55037;SDS011;40937;53.594;10.034;2023-04-30T09:30:56;6.57;;;3.50;;
55037;SDS011;40937;53.594;10.034;2023-04-30T09:33:23;5.90;;;2.75;;
55037;SDS011;40937;53.594;10.034;2023-04-30T09:35:50;7.45;;;2.72;;
55037;SDS011;40937;53.594;10.034;2023-04-30T09:38:26;5.20;;;3.05;;
55037;SDS011;40937;53.594;10.034;2023-04-30T09:40:56;10.10;;;3.00;;
55037;SDS011;40937;53.594;10.034;2023-04-30T09:43:23;9.00;;;3.55;;
55037;SDS011;40937;53.594;10.034;2023-04-30T09:45:56;6.72;;;2.88;;
55037;SDS011;40937;53.594;10.034;2023-04-30T09:48:23;9.55;;;3.55;;
55037;SDS011;40937;53.594;10.034;2023-04-30T09:50:54;9.70;;;3.10;;
55037;SDS011;40937;53.594;10.034;2023-04-30T09:53:21;7.20;;;2.83;;
55037;SDS011;40937;53.594;10.034;2023-04-30T09:55:49;10.85;;;2.90;;
55037;SDS011;40937;53.594;10.034;2023-04-30T09:58:18;8.88;;;2.88;;
55037;SDS011;40937;53.594;10.034;2023-04-30T10:00:46;6.57;;;3.20;;
55037;SDS011;40937;53.594;10.034;2023-04-30T10:03:16;11.30;;;3.35;;
55037;SDS011;40937;53.594;10.034;2023-04-30T10:05:43;9.40;;;2.75;;
55037;SDS011;40937;53.594;10.034;2023-04-30T10:08:12;6.85;;;2.88;;
55037;SDS011;40937;53.594;10.034;2023-04-30T10:10:42;6.43;;;3.30;;
55037;SDS011;40937;53.594;10.034;2023-04-30T10:13:09;7.47;;;2.92;;
55037;SDS011;40937;53.594;10.034;2023-04-30T10:15:38;11.10;;;2.97;;
55037;SDS011;40937;53.594;10.034;2023-04-30T10:18:10;6.78;;;2.63;;
55037;SDS011;40937;53.594;10.034;2023-04-30T10:20:39;5.32;;;3.35;;
55037;SDS011;40937;53.594;10.034;2023-04-30T10:23:06;9.60;;;2.90;;
55037;SDS011;40937;53.594;10.034;2023-04-30T10:25:33;6.57;;;3.15;;
55037;SDS011;40937;53.594;10.034;2023-04-30T10:28:01;6.85;;;3.03;;
55037;SDS011;40937;53.594;10.034;2023-04-30T10:30:28;5.65;;;3.03;;
55037;SDS011;40937;53.594;10.034;2023-04-30T10:33:01;14.05;;;2.63;;
55037;SDS011;40937;53.594;10.034;2023-04-30T10:35:32;8.68;;;3.13;;
55037;SDS011;40937;53.594;10.034;2023-04-30T10:38:03;6.50;;;3.55;;
55037;SDS011;40937;53.594;10.034;2023-04-30T10:40:36;7.80;;;3.05;;
55037;SDS011;40937;53.594;10.034;2023-04-30T10:43:03;7.00;;;2.80;;
55037;SDS011;40937;53.594;10.034;2023-04-30T10:45:33;6.38;;;3.03;;
55037;SDS011;40937;53.594;10.034;2023-04-30T10:48:05;8.98;;;3.15;;
55037;SDS011;40937;53.594;10.034;2023-04-30T10:50:32;6.03;;;2.72;;
55037;SDS011;40937;53.594;10.034;2023-04-30T10:53:05;13.10;;;3.25;;
55037;SDS011;40937;53.594;10.034;2023-04-30T10:55:32;7.10;;;3.15;;
55037;SDS011;40937;53.594;10.034;2023-04-30T10:58:05;5.75;;;3.30;;
55037;SDS011;40937;53.594;10.034;2023-04-30T11:00:50;6.68;;;2.83;;
55037;SDS011;40937;53.594;10.034;2023-04-30T11:03:18;6.03;;;2.65;;
55037;SDS011;40937;53.594;10.034;2023-04-30T11:05:47;5.75;;;3.17;;
55037;SDS011;40937;53.594;10.034;2023-04-30T11:08:14;6.88;;;3.00;;
55037;SDS011;40937;53.594;10.034;2023-04-30T11:10:56;5.55;;;2.40;;
55037;SDS011;40937;53.594;10.034;2023-04-30T11:13:23;5.57;;;2.90;;
55037;SDS011;40937;53.594;10.034;2023-04-30T11:15:52;5.22;;;2.95;;
55037;SDS011;40937;53.594;10.034;2023-04-30T11:18:20;6.53;;;3.22;;
55037;SDS011;40937;53.594;10.034;2023-04-30T11:20:48;5.30;;;2.53;;
55037;SDS011;40937;53.594;10.034;2023-04-30T11:23:15;8.80;;;2.85;;
55037;SDS011;40937;53.594;10.034;2023-04-30T11:25:43;7.03;;;2.83;;
55037;SDS011;40937;53.594;10.034;2023-04-30T11:28:12;5.13;;;3.03;;
55037;SDS011;40937;53.594;10.034;2023-04-30T11:30:39;13.48;;;3.20;;
55037;SDS011;40937;53.594;10.034;2023-04-30T11:33:07;6.55;;;2.38;;
55037;SDS011;40937;53.594;10.034;2023-04-30T11:35:35;6.88;;;3.10;;
55037;SDS011;40937;53.594;10.034;2023-04-30T11:38:03;5.32;;;3.10;;
55037;SDS011;40937;53.594;10.034;2023-04-30T11:40:33;8.38;;;2.70;;
55037;SDS011;40937;53.594;10.034;2023-04-30T11:43:04;9.13;;;3.08;;
55037;SDS011;40937;53.594;10.034;2023-04-30T11:45:30;8.00;;;2.80;;
55037;SDS011;40937;53.594;10.034;2023-04-30T11:47:57;4.00;;;2.92;;
55037;SDS011;40937;53.594;10.034;2023-04-30T11:50:25;5.78;;;2.53;;
55037;SDS011;40937;53.594;10.034;2023-04-30T11:52:55;9.63;;;3.47;;
55037;SDS011;40937;53.594;10.034;2023-04-30T11:55:23;8.07;;;3.10;;
55037;SDS011;40937;53.594;10.034;2023-04-30T11:57:51;7.00;;;3.45;;
55037;SDS011;40937;53.594;10.034;2023-04-30T12:00:20;11.35;;;3.20;;
55037;SDS011;40937;53.594;10.034;2023-04-30T12:02:48;7.50;;;3.03;;
55037;SDS011;40937;53.594;10.034;2023-04-30T12:05:16;8.82;;;2.75;;
55037;SDS011;40937;53.594;10.034;2023-04-30T12:07:43;5.47;;;3.00;;
55037;SDS011;40937;53.594;10.034;2023-04-30T12:10:13;8.00;;;2.97;;
55037;SDS011;40937;53.594;10.034;2023-04-30T12:12:41;7.57;;;2.53;;
55037;SDS011;40937;53.594;10.034;2023-04-30T12:15:12;6.40;;;2.75;;
55037;SDS011;40937;53.594;10.034;2023-04-30T12:17:39;4.53;;;2.40;;
55037;SDS011;40937;53.594;10.034;2023-04-30T12:20:06;8.25;;;2.78;;
55037;SDS011;40937;53.594;10.034;2023-04-30T12:22:34;7.78;;;2.95;;
55037;SDS011;40937;53.594;10.034;2023-04-30T12:25:04;5.57;;;2.90;;
55037;SDS011;40937;53.594;10.034;2023-04-30T12:27:33;4.55;;;2.80;;
55037;SDS011;40937;53.594;10.034;2023-04-30T12:30:01;8.18;;;2.78;;
55037;SDS011;40937;53.594;10.034;2023-04-30T12:32:28;7.90;;;2.70;;
55037;SDS011;40937;53.594;10.034;2023-04-30T12:34:56;7.00;;;3.13;;
55037;SDS011;40937;53.594;10.034;2023-04-30T12:37:25;6.70;;;3.28;;
55037;SDS011;40937;53.594;10.034;2023-04-30T12:39:53;4.53;;;2.90;;
55037;SDS011;40937;53.594;10.034;2023-04-30T12:42:21;5.38;;;2.72;;
55037;SDS011;40937;53.594;10.034;2023-04-30T12:44:49;4.15;;;2.58;;
55037;SDS011;40937;53.594;10.034;2023-04-30T12:47:16;7.07;;;2.75;;
55037;SDS011;40937;53.594;10.034;2023-04-30T12:49:43;7.93;;;2.85;;
55037;SDS011;40937;53.594;10.034;2023-04-30T12:52:11;5.75;;;3.15;;
55037;SDS011;40937;53.594;10.034;2023-04-30T12:54:38;8.55;;;2.83;;
55037;SDS011;40937;53.594;10.034;2023-04-30T12:57:07;8.15;;;2.95;;
55037;SDS011;40937;53.594;10.034;2023-04-30T12:59:35;7.90;;;3.17;;
55037;SDS011;40937;53.594;10.034;2023-04-30T13:02:07;3.72;;;2.80;;
55037;SDS011;40937;53.594;10.034;2023-04-30T13:04:34;5.38;;;2.90;;
55037;SDS011;40937;53.594;10.034;2023-04-30T13:07:01;4.60;;;2.20;;
55037;SDS011;40937;53.594;10.034;2023-04-30T13:09:29;3.13;;;2.75;;
55037;SDS011;40937;53.594;10.034;2023-04-30T13:11:56;9.98;;;3.38;;
55037;SDS011;40937;53.594;10.034;2023-04-30T13:14:23;7.65;;;3.25;;
55037;SDS011;40937;53.594;10.034;2023-04-30T13:16:50;9.68;;;3.05;;
55037;SDS011;40937;53.594;10.034;2023-04-30T13:19:19;5.95;;;2.60;;
55037;SDS011;40937;53.594;10.034;2023-04-30T13:21:46;4.63;;;2.70;;
55037;SDS011;40937;53.594;10.034;2023-04-30T13:24:13;7.97;;;2.92;;
55037;SDS011;40937;53.594;10.034;2023-04-30T13:26:40;4.00;;;2.67;;
55037;SDS011;40937;53.594;10.034;2023-04-30T13:35:10;5.32;;;2.97;;
55037;SDS011;40937;53.594;10.034;2023-04-30T13:46:18;7.00;;;3.42;;
55037;SDS011;40937;53.594;10.034;2023-04-30T13:57:13;5.93;;;3.03;;
55037;SDS011;40937;53.594;10.034;2023-04-30T14:28:37;3.95;;;2.47;;
55037;SDS011;40937;53.594;10.034;2023-04-30T14:31:03;6.47;;;2.72;;
55037;SDS011;40937;53.594;10.034;2023-04-30T14:33:30;7.35;;;2.88;;
55037;SDS011;40937;53.594;10.034;2023-04-30T14:35:57;9.93;;;2.63;;
55037;SDS011;40937;53.594;10.034;2023-04-30T15:41:12;5.97;;;2.85;;
55037;SDS011;40937;53.594;10.034;2023-04-30T15:43:39;6.85;;;2.92;;
55037;SDS011;40937;53.594;10.034;2023-04-30T15:46:06;4.97;;;3.30;;
55037;SDS011;40937;53.594;10.034;2023-04-30T15:48:33;5.88;;;3.17;;
55037;SDS011;40937;53.594;10.034;2023-04-30T15:51:03;9.10;;;5.07;;
55037;SDS011;40937;53.594;10.034;2023-04-30T15:53:30;8.20;;;3.67;;
55037;SDS011;40937;53.594;10.034;2023-04-30T15:55:57;8.20;;;2.67;;
55037;SDS011;40937;53.594;10.034;2023-04-30T15:58:25;12.10;;;3.03;;
55037;SDS011;40937;53.594;10.034;2023-04-30T16:00:52;7.90;;;2.85;;
55037;SDS011;40937;53.594;10.034;2023-04-30T16:03:19;5.72;;;2.90;;
55037;SDS011;40937;53.594;10.034;2023-04-30T16:05:46;6.32;;;3.08;;
55037;SDS011;40937;53.594;10.034;2023-04-30T16:08:13;7.25;;;2.85;;
55037;SDS011;40937;53.594;10.034;2023-04-30T16:10:40;9.65;;;3.00;;
55037;SDS011;40937;53.594;10.034;2023-04-30T16:13:07;6.00;;;3.80;;
55037;SDS011;40937;53.594;10.034;2023-04-30T16:15:36;10.32;;;3.60;;
55037;SDS011;40937;53.594;10.034;2023-04-30T16:18:03;6.13;;;3.10;;
55037;SDS011;40937;53.594;10.034;2023-04-30T16:20:30;8.27;;;3.90;;
55037;SDS011;40937;53.594;10.034;2023-04-30T16:22:59;6.97;;;3.50;;
55037;SDS011;40937;53.594;10.034;2023-04-30T16:25:26;3.50;;;2.63;;
55037;SDS011;40937;53.594;10.034;2023-04-30T16:27:53;5.25;;;2.90;;
55037;SDS011;40937;53.594;10.034;2023-04-30T16:30:20;7.78;;;3.33;;